Time;durP1;ratioP1;P1;durP2;ratioP2;P2;SDS_P1;SDS_P2;PMS_P1;PMS_P2;Temp;Humidity;BMP_temperature;BMP_pressure;BME280_temperature;BME280_humidity;BME280_pressure;Samples;Min_cycle;Max_cycle;Signal;HPM_P1;HPM_P2
2022/01/23 00:01:15;;;;;;;9.93;8.47;;;;;;;5.82;54.67;103054.88;5033984;28;20451;-43
2022/01/23 00:03:46;;;;;;;7.07;6.70;;;;;;;5.84;52.19;103061.75;5034350;28;20439;-47
2022/01/23 00:06:14;;;;;;;8.23;7.40;;;;;;;5.89;52.41;103064.09;5034061;28;20435;-45
2022/01/23 00:08:45;;;;;;;8.63;7.80;;;;;;;5.91;53.55;103070.16;5033157;28;20530;-46
2022/01/23 00:11:15;;;;;;;9.03;8.00;;;;;;;5.92;53.93;103064.72;5034154;28;20436;-45
2022/01/23 00:19:12;;;;;;;8.27;7.63;;;;;;;6.00;55.72;103067.66;5033060;28;20471;-47
2022/01/23 00:21:40;;;;;;;7.40;6.80;;;;;;;6.00;55.24;103070.31;5033804;28;20821;-48
2022/01/23 00:32:27;;;;;;;13.70;8.57;;;;;;;6.02;58.88;103084.31;5033869;28;20452;-45
2022/01/23 00:34:55;;;;;;;7.83;7.13;;;;;;;6.05;56.86;103085.88;5033672;28;20448;-43
2022/01/23 00:37:24;;;;;;;8.10;7.70;;;;;;;6.02;57.26;103091.41;5033328;28;20429;-46
2022/01/23 00:39:52;;;;;;;7.17;6.43;;;;;;;6.03;54.83;103099.22;5032820;28;20472;-47
2022/01/23 00:42:21;;;;;;;9.30;8.27;;;;;;;6.02;52.66;103097.56;5033573;28;20452;-45
2022/01/23 00:45:01;;;;;;;7.77;7.17;;;;;;;6.03;53.31;103098.41;5069094;28;20439;-50
2022/01/23 00:47:31;;;;;;;7.70;7.30;;;;;;;6.00;54.36;103110.03;5072883;28;20429;-45
2022/01/23 00:49:59;;;;;;;7.63;7.13;;;;;;;6.05;53.54;103112.38;5072845;28;20462;-46
2022/01/23 00:52:26;;;;;;;8.97;8.00;;;;;;;6.11;52.68;103111.94;5072888;28;20456;-48
2022/01/23 00:54:55;;;;;;;7.93;7.43;;;;;;;6.10;55.81;103103.13;5073209;28;20435;-46
2022/01/23 00:57:24;;;;;;;7.40;7.00;;;;;;;6.13;56.30;103120.59;5073067;28;20453;-48
2022/01/23 00:59:52;;;;;;;9.60;7.50;;;;;;;6.02;58.83;103113.44;5072576;28;20464;-44
2022/01/23 01:02:19;;;;;;;6.57;6.17;;;;;;;6.08;56.79;103120.09;5073408;28;20462;-46
2022/01/23 01:04:47;;;;;;;7.97;7.23;;;;;;;6.06;55.05;103117.53;5072733;28;20480;-49
2022/01/23 01:07:15;;;;;;;6.80;6.47;;;;;;;6.10;55.64;103118.16;5072519;28;20426;-45
2022/01/23 01:09:48;;;;;;;13.50;7.47;;;;;;;6.07;56.51;103121.03;5072320;28;20500;-45
2022/01/23 01:12:19;;;;;;;7.00;6.60;;;;;;;6.09;55.48;103119.16;5072693;28;20447;-46
2022/01/23 01:15:23;;;;;;;7.23;6.83;;;;;;;6.08;57.35;103115.66;5072637;28;20435;-49
2022/01/23 01:31:45;;;;;;;8.27;7.57;;;;;;;5.95;51.87;103106.03;5072304;28;20446;-47
2022/01/23 01:34:17;;;;;;;7.53;6.93;;;;;;;5.88;52.96;103123.31;5072115;28;20940;-46
2022/01/23 01:36:49;;;;;;;6.80;6.30;;;;;;;5.82;51.85;103121.94;5072436;28;20481;-47
2022/01/23 01:39:20;;;;;;;7.40;6.83;;;;;;;5.85;48.58;103120.84;5071386;28;20466;-49
2022/01/23 01:41:48;;;;;;;7.30;6.67;;;;;;;5.83;42.52;103123.59;5072167;28;20903;-47
2022/01/23 01:44:16;;;;;;;9.33;7.60;;;;;;;5.81;42.13;103114.94;5059312;28;20440;-44
2022/01/23 01:46:46;;;;;;;8.53;7.93;;;;;;;5.82;40.91;103124.56;5051937;28;20427;-49
2022/01/23 01:49:14;;;;;;;7.70;7.20;;;;;;;5.82;40.58;103127.22;5050697;28;21000;-44
2022/01/23 01:51:43;;;;;;;8.10;7.40;;;;;;;5.81;41.11;103124.66;5052111;28;20466;-49
2022/01/23 01:54:14;;;;;;;8.80;8.00;;;;;;;5.85;39.40;103127.03;5052116;28;20431;-44
2022/01/23 01:56:50;;;;;;;9.23;8.83;;;;;;;5.84;38.77;103127.94;5052079;28;20428;-48
2022/01/23 01:59:45;;;;;;;7.97;7.37;;;;;;;5.84;37.49;103125.31;5050730;28;20467;-45
2022/01/23 02:08:23;;;;;;;8.37;7.87;;;;;;;5.74;39.27;103118.09;5051382;28;20434;-46
2022/01/23 02:10:55;;;;;;;8.63;8.03;;;;;;;5.78;36.00;103122.22;5051832;28;20434;-50
2022/01/23 02:13:28;;;;;;;10.33;7.73;;;;;;;5.73;37.61;103129.66;5051756;28;20455;-48
2022/01/23 02:16:27;;;;;;;9.87;8.40;;;;;;;5.75;35.81;103125.94;5051726;28;20442;-45
2022/01/23 02:25:03;;;;;;;8.50;7.90;;;;;;;5.80;38.40;103120.31;5051786;28;20435;-44
2022/01/23 02:52:44;;;;;;;9.90;9.30;;;;;;;5.86;41.45;103125.22;5051447;28;20804;-46
2022/01/23 02:55:15;;;;;;;10.27;9.53;;;;;;;5.87;39.52;103135.72;5051377;28;20441;-47
2022/01/23 02:57:53;;;;;;;9.00;8.50;;;;;;;5.91;38.14;103123.94;5051243;28;20434;-49
2022/01/23 03:00:25;;;;;;;9.47;8.67;;;;;;;5.88;38.58;103132.13;5051285;28;20450;-47
2022/01/23 03:02:53;;;;;;;10.00;9.40;;;;;;;5.89;35.75;103136.44;5051188;28;20470;-46
2022/01/23 03:05:34;;;;;;;9.40;8.70;;;;;;;5.89;34.45;103133.78;5051293;28;20432;-45
2022/01/23 03:08:17;;;;;;;9.93;9.20;;;;;;;5.88;34.82;103129.47;5050740;28;20415;-45
2022/01/23 03:10:58;;;;;;;8.53;8.03;;;;;;;5.84;37.57;103125.31;5053342;28;20817;-46
2022/01/23 03:13:49;;;;;;;9.20;8.70;;;;;;;5.87;35.47;103130.41;5055102;28;20442;-47
2022/01/23 03:24:48;;;;;;;10.40;9.40;;;;;;;5.92;32.71;103125.63;5054750;28;20435;-44
2022/01/23 03:27:52;;;;;;;8.87;8.30;;;;;;;5.92;34.10;103128.28;5054778;28;20431;-46
2022/01/23 03:30:22;;;;;;;8.97;8.37;;;;;;;5.92;35.37;103125.63;5054436;28;20497;-44
2022/01/23 03:32:51;;;;;;;9.40;8.70;;;;;;;5.90;32.45;103126.69;5054533;28;20444;-49
2022/01/23 03:35:22;;;;;;;8.80;8.10;;;;;;;5.90;35.07;103121.41;5054605;28;20949;-45
2022/01/23 03:37:50;;;;;;;10.07;9.10;;;;;;;5.90;34.49;103124.06;5054135;28;20430;-47
2022/01/23 03:40:19;;;;;;;8.50;8.20;;;;;;;5.93;32.66;103127.34;5054601;28;20427;-46
2022/01/23 03:42:55;;;;;;;8.87;8.47;;;;;;;5.95;33.94;103121.91;5054379;28;20455;-46
2022/01/23 03:45:50;;;;;;;8.57;8.17;;;;;;;5.94;36.70;103136.13;5047994;28;20845;-44
2022/01/23 03:51:03;;;;;;;9.13;8.63;;;;;;;5.96;38.05;103142.16;5054270;28;20840;-47
2022/01/23 03:53:30;;;;;;;9.03;8.43;;;;;;;5.93;38.50;103143.22;5054341;28;20443;-46
2022/01/23 03:55:58;;;;;;;9.80;9.00;;;;;;;5.95;33.96;103148.41;5054315;28;20432;-47
2022/01/23 03:58:27;;;;;;;9.10;8.70;;;;;;;5.97;36.38;103151.81;5053570;28;20459;-46
2022/01/23 04:00:54;;;;;;;9.43;8.83;;;;;;;5.92;36.52;103145.97;5054031;28;20427;-50
2022/01/23 04:03:23;;;;;;;10.53;9.93;;;;;;;5.93;35.11;103147.66;5054224;28;20451;-46
2022/01/23 04:05:51;;;;;;;10.00;9.50;;;;;;;5.91;35.72;103147.75;5054215;28;20524;-47
2022/01/23 04:08:18;;;;;;;9.63;9.13;;;;;;;5.96;33.79;103153.59;5053265;28;20470;-46
2022/01/23 04:10:46;;;;;;;10.60;9.70;;;;;;;5.96;34.33;103147.44;5054058;28;20482;-44
2022/01/23 04:13:19;;;;;;;9.70;9.07;;;;;;;5.96;34.76;103150.09;5054078;28;20455;-46
2022/01/23 04:15:53;;;;;;;9.77;9.27;;;;;;;5.96;34.64;103147.44;5053962;28;20430;-45
2022/01/23 04:21:18;;;;;;;9.60;9.10;;;;;;;6.03;34.04;103146.91;5053003;28;20438;-47
2022/01/23 04:32:15;;;;;;;9.90;9.40;;;;;;;6.05;37.85;103147.66;5033490;28;20459;-45
2022/01/23 04:35:02;;;;;;;9.03;8.70;;;;;;;6.08;35.13;103146.59;5033586;28;20445;-50
2022/01/23 04:45:51;;;;;;;8.90;8.60;;;;;;;6.06;35.98;103143.22;5053136;28;20426;-45
2022/01/23 04:48:56;;;;;;;9.40;8.80;;;;;;;6.06;37.14;103136.09;5052793;28;20458;-47
2022/01/23 04:59:41;;;;;;;9.07;8.47;;;;;;;6.10;38.24;103148.16;5052424;28;20473;-45
2022/01/23 05:02:29;;;;;;;10.80;9.90;;;;;;;6.12;33.06;103148.91;5052767;28;20463;-45
2022/01/23 05:04:58;;;;;;;9.07;8.77;;;;;;;6.11;34.14;103141.06;5053160;28;20867;-48
2022/01/23 05:07:28;;;;;;;9.30;8.90;;;;;;;6.13;33.68;103155.03;5052926;28;20427;-47
2022/01/23 05:09:56;;;;;;;9.37;8.77;;;;;;;6.15;33.58;103149.66;5052421;28;20518;-47
2022/01/23 05:12:28;;;;;;;10.13;9.53;;;;;;;6.12;36.26;103148.06;5052803;28;20452;-44
2022/01/23 05:14:56;;;;;;;9.80;9.30;;;;;;;6.10;36.54;103148.16;5052563;28;20442;-45
2022/01/23 05:17:24;;;;;;;8.90;8.60;;;;;;;6.11;36.66;103141.91;5052352;28;20431;-48
2022/01/23 05:19:51;;;;;;;9.83;9.33;;;;;;;6.15;34.39;103154.94;5052230;28;20530;-50
2022/01/23 05:22:27;;;;;;;9.47;8.97;;;;;;;6.08;36.96;103155.38;5052510;28;20456;-45
2022/01/23 05:24:58;;;;;;;10.13;9.50;;;;;;;6.15;32.88;103160.25;5052682;28;20441;-49
2022/01/23 05:27:27;;;;;;;10.10;9.50;;;;;;;6.18;31.92;103176.78;5052483;28;20431;-45
2022/01/23 05:29:57;;;;;;;8.87;8.57;;;;;;;6.15;33.44;103173.50;5051779;28;20486;-47
2022/01/23 05:32:27;;;;;;;8.70;8.30;;;;;;;6.08;35.43;103181.88;5051784;28;20786;-49
2022/01/23 05:34:55;;;;;;;8.47;8.17;;;;;;;6.09;34.55;103183.53;5052535;28;20435;-46
2022/01/23 05:37:24;;;;;;;9.70;8.97;;;;;;;6.15;32.09;103181.44;5052019;28;20442;-45
2022/01/23 05:39:51;;;;;;;10.17;9.70;;;;;;;6.16;30.36;103193.72;5051703;28;20844;-48
2022/01/23 05:42:19;;;;;;;9.70;8.87;;;;;;;6.17;32.42;103192.78;5052409;28;21102;-46
2022/01/23 05:44:47;;;;;;;8.90;8.40;;;;;;;6.20;34.38;103193.41;5051704;28;20442;-47
2022/01/23 05:47:14;;;;;;;8.93;8.23;;;;;;;6.25;34.81;103190.41;5052127;28;20813;-49
2022/01/23 05:49:42;;;;;;;10.40;9.80;;;;;;;6.21;38.23;103191.59;5051811;28;20459;-47
2022/01/23 05:52:10;;;;;;;10.30;9.60;;;;;;;6.19;39.91;103194.34;5052078;28;20455;-46
2022/01/23 05:54:39;;;;;;;9.37;8.87;;;;;;;6.16;41.60;103199.00;5051922;28;20435;-44
2022/01/23 05:57:07;;;;;;;9.83;9.10;;;;;;;6.19;36.06;103197.00;5052193;28;20428;-45
2022/01/23 05:59:34;;;;;;;9.73;9.00;;;;;;;6.18;34.97;103187.38;5051356;28;20463;-45
2022/01/23 06:02:02;;;;;;;9.13;8.40;;;;;;;6.11;36.41;103197.56;5051796;28;20459;-46
2022/01/23 06:04:30;;;;;;;9.80;9.20;;;;;;;6.20;34.26;103203.16;5051786;28;20976;-46
2022/01/23 06:06:59;;;;;;;9.20;8.50;;;;;;;6.20;37.11;103201.34;5051748;28;20431;-47
2022/01/23 06:09:27;;;;;;;9.17;8.57;;;;;;;6.25;39.36;103209.81;5051178;28;20463;-45
2022/01/23 06:11:57;;;;;;;8.57;8.20;;;;;;;6.18;43.29;103205.94;5051927;28;20482;-46
2022/01/23 06:14:25;;;;;;;8.70;8.30;;;;;;;6.22;41.19;103211.81;5051969;28;20423;-44
2022/01/23 06:16:53;;;;;;;9.20;8.70;;;;;;;6.25;41.31;103219.56;5051593;28;20909;-47
2022/01/23 06:19:20;;;;;;;9.63;8.83;;;;;;;6.28;44.99;103217.56;5051082;28;20473;-47
2022/01/23 06:21:48;;;;;;;8.90;8.30;;;;;;;6.29;47.22;103215.75;5051569;28;20458;-47
2022/01/23 06:24:24;;;;;;;9.10;8.67;;;;;;;6.25;49.35;103215.13;5051805;28;20526;-45
2022/01/23 06:26:53;;;;;;;10.40;9.70;;;;;;;6.25;47.27;103224.88;5051840;28;20940;-48
2022/01/23 06:29:24;;;;;;;9.90;9.23;;;;;;;6.24;46.85;103218.75;5050986;28;20485;-46
2022/01/23 06:31:53;;;;;;;8.80;8.50;;;;;;;6.22;46.13;103215.34;5051509;28;20486;-47
2022/01/23 06:34:21;;;;;;;8.80;8.50;;;;;;;6.23;48.30;103211.72;5062396;28;20439;-48
2022/01/23 06:36:51;;;;;;;9.37;8.87;;;;;;;6.25;46.81;103215.13;5068522;28;20442;-45
2022/01/23 06:39:20;;;;;;;9.10;8.63;;;;;;;6.27;47.58;103218.53;5062617;28;20558;-49
2022/01/23 06:41:48;;;;;;;9.77;9.17;;;;;;;6.28;45.54;103220.19;5065574;28;20457;-47
2022/01/23 06:44:16;;;;;;;9.23;8.50;;;;;;;6.25;48.26;103225.72;5042774;28;20437;-45
2022/01/23 06:46:46;;;;;;;10.30;9.40;;;;;;;6.23;45.23;103221.47;5065307;28;20465;-45
2022/01/23 06:49:13;;;;;;;10.80;10.10;;;;;;;6.19;45.79;103225.28;5065947;28;20543;-47
2022/01/23 06:51:42;;;;;;;9.70;9.10;;;;;;;6.21;47.81;103218.97;5063277;28;20536;-47
2022/01/23 06:54:10;;;;;;;10.20;9.20;;;;;;;6.16;51.12;103223.72;5062216;28;20437;-50
2022/01/23 06:56:38;;;;;;;10.13;9.10;;;;;;;6.16;48.52;103231.66;5060130;28;20424;-45
2022/01/23 06:59:06;;;;;;;9.90;9.40;;;;;;;6.15;48.87;103237.94;5062318;28;20466;-46
2022/01/23 07:01:33;;;;;;;9.90;9.20;;;;;;;6.14;47.52;103233.56;5060132;28;20455;-44
2022/01/23 07:04:03;;;;;;;10.57;9.40;;;;;;;6.16;47.05;103238.75;5058314;28;20937;-45
2022/01/23 07:06:31;;;;;;;10.53;9.50;;;;;;;6.20;45.52;103238.44;5048097;28;20431;-48
2022/01/23 07:09:08;;;;;;;8.93;8.30;;;;;;;6.18;45.60;103235.06;5045887;28;20877;-44
2022/01/23 07:11:36;;;;;;;8.33;7.93;;;;;;;6.18;46.61;103244.81;5056676;28;20482;-46
2022/01/23 07:14:03;;;;;;;8.47;8.17;;;;;;;6.15;48.17;103247.69;5066506;28;20439;-47
2022/01/23 07:16:31;;;;;;;9.07;8.17;;;;;;;6.20;46.55;103246.41;5063835;28;20426;-45
2022/01/23 07:18:59;;;;;;;8.63;8.03;;;;;;;6.19;50.08;103244.69;5053880;28;20467;-48
2022/01/23 07:21:28;;;;;;;9.73;9.03;;;;;;;6.19;49.77;103251.78;5068316;28;20450;-44
2022/01/23 07:23:55;;;;;;;9.50;8.90;;;;;;;6.19;49.90;103255.28;5067502;28;20435;-44
2022/01/23 07:26:26;;;;;;;9.83;8.90;;;;;;;6.24;52.70;103253.19;5068228;28;20434;-45
2022/01/23 07:28:57;;;;;;;10.70;9.40;;;;;;;6.26;56.02;103264.50;5051165;28;20471;-44
2022/01/23 07:31:43;;;;;;;10.10;9.13;;;;;;;6.26;56.48;103266.31;5072290;28;20481;-50
2022/01/23 07:34:16;;;;;;;9.77;9.10;;;;;;;6.22;54.46;103263.03;5049202;28;20436;-51
2022/01/23 07:36:45;;;;;;;11.00;10.40;;;;;;;6.20;56.87;103269.38;5045582;28;20940;-47
2022/01/23 07:39:12;;;;;;;12.37;10.70;;;;;;;6.25;54.59;103275.22;5071558;28;20473;-48
2022/01/23 07:41:40;;;;;;;9.57;9.17;;;;;;;6.24;51.73;103284.13;5063302;28;20447;-45
2022/01/23 07:44:08;;;;;;;9.07;8.57;;;;;;;6.24;48.75;103277.03;5054355;28;20459;-43
2022/01/23 07:46:36;;;;;;;10.00;9.40;;;;;;;6.26;49.78;103288.38;5061965;28;20423;-42
2022/01/23 07:49:03;;;;;;;9.70;8.83;;;;;;;6.29;50.60;103289.94;5046505;28;20469;-47
2022/01/23 07:51:31;;;;;;;10.07;9.07;;;;;;;6.38;49.66;103287.50;5055500;28;20475;-45
2022/01/23 07:54:00;;;;;;;9.97;9.27;;;;;;;6.46;48.91;103294.91;5067086;28;20435;-46
2022/01/23 07:56:28;;;;;;;10.60;9.87;;;;;;;6.51;51.40;103303.41;5053668;28;20437;-49
2022/01/23 07:58:55;;;;;;;11.03;10.23;;;;;;;6.56;53.48;103298.63;5070567;28;21190;-46
2022/01/23 08:01:23;;;;;;;10.47;9.67;;;;;;;6.58;55.20;103312.59;5060937;28;20455;-44
2022/01/23 08:03:51;;;;;;;10.40;9.70;;;;;;;6.62;56.24;103308.78;5060713;28;20440;-48
2022/01/23 08:06:21;;;;;;;10.13;9.43;;;;;;;6.61;59.58;103296.47;5064844;28;20423;-45
2022/01/23 08:08:49;;;;;;;10.33;9.67;;;;;;;6.61;61.50;103299.13;5062637;28;20488;-42
2022/01/23 08:11:18;;;;;;;9.20;8.60;;;;;;;6.60;60.16;103308.06;5063654;28;20426;-45
2022/01/23 08:13:45;;;;;;;9.47;8.70;;;;;;;6.56;58.51;103311.88;5045235;28;20431;-46
2022/01/23 08:16:13;;;;;;;9.77;8.73;;;;;;;6.48;52.48;103306.28;5066481;28;20435;-44
2022/01/23 08:18:41;;;;;;;12.60;9.73;;;;;;;6.45;52.27;103317.91;5064011;28;20462;-45
2022/01/23 08:21:09;;;;;;;9.83;8.97;;;;;;;6.43;54.81;103324.28;5049040;28;20438;-45
2022/01/23 08:23:38;;;;;;;10.33;9.73;;;;;;;6.45;55.85;103325.88;5046938;28;20905;-44
2022/01/23 08:26:05;;;;;;;20.47;10.23;;;;;;;6.54;56.48;103316.44;5045340;28;20440;-44
2022/01/23 08:28:34;;;;;;;12.50;10.77;;;;;;;6.53;59.85;103320.91;5053962;28;20454;-46
2022/01/23 08:31:02;;;;;;;13.30;10.47;;;;;;;6.60;61.37;103323.97;5060535;28;20440;-49
2022/01/23 08:33:30;;;;;;;12.40;9.47;;;;;;;6.64;63.71;103325.44;5062450;28;21001;-45
2022/01/23 08:35:57;;;;;;;13.60;10.93;;;;;;;6.62;66.50;103333.50;5054961;28;20789;-48
2022/01/23 08:38:25;;;;;;;14.47;11.50;;;;;;;6.53;70.02;103338.59;5052381;28;20462;-46
2022/01/23 08:43:54;;;;;;;11.87;10.87;;;;;;;6.69;68.72;103344.50;5052050;28;20446;-44
2022/01/23 08:46:22;;;;;;;17.03;11.20;;;;;;;6.71;71.39;103345.25;5056927;28;20431;-43
2022/01/23 08:48:56;;;;;;;14.57;11.10;;;;;;;6.77;71.54;103344.84;5045228;28;20481;-44
2022/01/23 08:51:24;;;;;;;17.57;10.97;;;;;;;6.79;73.29;103347.34;5049704;28;20451;-44
2022/01/23 08:53:51;;;;;;;12.40;10.83;;;;;;;6.83;73.77;103352.34;5047940;28;20447;-43
2022/01/23 08:56:19;;;;;;;13.70;11.77;;;;;;;6.86;73.90;103346.84;5049146;28;20513;-45
2022/01/23 08:58:47;;;;;;;13.27;12.00;;;;;;;6.90;74.36;103342.97;5048859;28;20485;-46
2022/01/23 09:01:16;;;;;;;13.80;12.40;;;;;;;6.92;75.53;103350.84;5054921;28;20530;-45
2022/01/23 09:03:44;;;;;;;12.57;11.47;;;;;;;6.95;75.48;103346.19;5053954;28;20471;-45
2022/01/23 09:06:12;;;;;;;15.20;10.87;;;;;;;6.96;77.92;103347.03;5056810;28;20534;-43
2022/01/23 09:08:41;;;;;;;18.23;11.73;;;;;;;6.99;77.82;103354.78;5058771;28;20474;-43
2022/01/23 09:11:12;;;;;;;13.27;11.47;;;;;;;6.99;78.61;103357.44;5042063;28;20431;-44
2022/01/23 09:13:53;;;;;;;16.80;10.77;;;;;;;7.04;79.23;103352.63;5044536;28;20455;-43
2022/01/23 09:16:22;;;;;;;16.63;11.90;;;;;;;7.09;78.71;103358.44;5049432;28;20427;-42
2022/01/23 09:18:50;;;;;;;16.40;11.60;;;;;;;7.15;78.31;103352.69;5048846;28;20554;-42
2022/01/23 09:21:18;;;;;;;17.30;11.33;;;;;;;7.19;79.53;103356.81;5055376;28;20505;-43
2022/01/23 09:23:46;;;;;;;12.53;11.20;;;;;;;7.18;81.66;103353.31;5056016;28;20443;-43
2022/01/23 09:26:17;;;;;;;15.40;10.43;;;;;;;7.21;81.96;103363.72;5048673;28;20443;-42
2022/01/23 09:28:45;;;;;;;16.40;11.53;;;;;;;7.20;83.48;103367.31;5052422;28;20472;-43
2022/01/23 09:31:25;;;;;;;16.27;9.73;;;;;;;7.25;83.10;103364.34;5051318;28;20438;-43
2022/01/23 09:33:54;;;;;;;16.03;11.70;;;;;;;7.29;83.35;103354.34;5053149;28;20490;-43
2022/01/23 09:36:21;;;;;;;17.37;11.97;;;;;;;7.34;84.27;103365.47;5045552;28;20439;-45
2022/01/23 09:38:49;;;;;;;21.23;11.43;;;;;;;7.41;84.42;103364.06;5050852;28;20471;-43
2022/01/23 09:41:21;;;;;;;14.57;13.20;;;;;;;7.45;85.89;103362.88;5053740;28;20994;-47
2022/01/23 09:43:50;;;;;;;14.83;12.00;;;;;;;7.49;87.89;103359.06;5049951;28;20936;-43
2022/01/23 09:46:19;;;;;;;17.87;12.10;;;;;;;7.58;88.38;103361.03;5040870;28;20432;-46
2022/01/23 09:48:48;;;;;;;15.07;11.30;;;;;;;7.67;88.89;103358.53;5060745;28;20450;-45
2022/01/23 09:51:18;;;;;;;17.40;12.20;;;;;;;7.72;89.68;103360.84;5048292;28;20437;-45
2022/01/23 09:53:46;;;;;;;18.93;13.87;;;;;;;7.76;91.72;103371.09;5052415;28;20483;-44
2022/01/23 09:56:16;;;;;;;12.40;11.37;;;;;;;7.83;92.18;103371.50;5049952;28;20460;-47
2022/01/23 09:58:44;;;;;;;16.57;12.13;;;;;;;7.92;92.19;103375.28;5061389;28;20462;-45
2022/01/23 10:01:13;;;;;;;20.97;11.80;;;;;;;7.99;92.31;103369.41;5058697;28;20445;-46
2022/01/23 10:03:41;;;;;;;16.97;12.70;;;;;;;8.10;92.24;103376.53;5039975;28;20475;-46
2022/01/23 10:06:11;;;;;;;13.70;12.07;;;;;;;8.17;93.06;103370.66;5043430;28;20462;-44
2022/01/23 10:08:40;;;;;;;13.03;11.90;;;;;;;8.18;95.27;103377.66;5057340;28;20474;-44
2022/01/23 10:11:11;;;;;;;14.50;11.20;;;;;;;8.26;94.89;103377.94;5051079;28;20472;-44
2022/01/23 10:13:40;;;;;;;10.60;9.60;;;;;;;8.31;96.03;103380.25;5055815;28;20471;-49
2022/01/23 10:16:08;;;;;;;13.63;12.40;;;;;;;8.28;97.45;103381.34;5049126;28;20800;-46
2022/01/23 10:18:36;;;;;;;13.57;12.40;;;;;;;8.35;97.10;103379.06;5044348;28;20976;-43
2022/01/23 10:21:04;;;;;;;11.93;10.90;;;;;;;8.34;97.74;103375.56;5043920;28;20803;-44
2022/01/23 10:23:32;;;;;;;12.33;10.23;;;;;;;8.44;97.59;103385.50;5047669;28;20445;-44
2022/01/23 10:26:02;;;;;;;13.57;10.80;;;;;;;8.39;97.56;103385.00;5049979;28;20800;-46
2022/01/23 10:28:32;;;;;;;10.13;9.10;;;;;;;8.40;97.22;103392.00;5047762;28;20463;-42
2022/01/23 10:31:03;;;;;;;10.20;8.90;;;;;;;8.39;97.07;103387.66;5049023;28;20806;-48
2022/01/23 10:33:33;;;;;;;10.63;9.20;;;;;;;8.37;96.85;103386.91;5043676;28;20550;-46
2022/01/23 10:36:04;;;;;;;11.70;9.67;;;;;;;8.41;96.77;103391.03;5048320;28;20472;-45
2022/01/23 10:38:35;;;;;;;9.40;8.33;;;;;;;8.44;96.69;103390.81;5050258;28;20466;-43
2022/01/23 10:41:24;;;;;;;9.10;8.40;;;;;;;8.48;96.49;103387.81;5044481;28;20940;-45
2022/01/23 10:47:32;;;;;;;8.97;8.20;;;;;;;8.49;95.35;103372.66;5047388;28;20423;-45
2022/01/23 10:50:03;;;;;;;12.73;8.30;;;;;;;8.34;94.53;103386.19;5046583;28;20995;-44
2022/01/23 10:52:33;;;;;;;8.93;8.23;;;;;;;8.42;95.43;103384.78;5045098;28;20464;-47
2022/01/23 10:55:02;;;;;;;8.73;8.03;;;;;;;8.43;95.36;103378.47;5052208;28;20439;-44
2022/01/23 10:57:38;;;;;;;12.93;8.37;;;;;;;8.43;94.93;103381.97;5050738;28;20432;-43
2022/01/23 11:00:09;;;;;;;13.07;8.53;;;;;;;8.20;94.29;103385.53;5042646;28;20474;-46
2022/01/23 11:02:40;;;;;;;9.77;7.87;;;;;;;8.34;95.45;103386.19;5049298;28;20453;-46
2022/01/23 11:05:11;;;;;;;9.97;9.00;;;;;;;8.36;94.19;103388.75;5050075;28;20431;-48
2022/01/23 11:07:42;;;;;;;10.67;8.63;;;;;;;8.34;94.08;103386.19;5052392;28;20431;-50
2022/01/23 11:10:12;;;;;;;9.23;8.17;;;;;;;8.28;94.30;103391.13;5049748;28;20462;-44
2022/01/23 11:18:13;;;;;;;12.40;8.37;;;;;;;8.07;94.42;103388.25;5049194;28;20479;-44
2022/01/23 11:20:43;;;;;;;8.37;7.43;;;;;;;8.01;95.17;103382.56;5057638;28;20419;-43
2022/01/23 11:23:14;;;;;;;16.10;8.20;;;;;;;8.00;95.34;103384.41;5053134;28;20454;-44
2022/01/23 11:25:43;;;;;;;8.50;7.60;;;;;;;7.86;94.81;103381.03;5042751;28;20437;-43
2022/01/23 11:28:13;;;;;;;8.33;7.83;;;;;;;7.79;95.66;103384.16;5052405;28;20463;-44
2022/01/23 11:30:44;;;;;;;8.90;8.30;;;;;;;7.62;95.83;103391.69;5044466;28;20435;-43
2022/01/23 11:33:16;;;;;;;9.07;8.20;;;;;;;7.57;96.25;103389.38;5059068;28;20812;-46
2022/01/23 11:35:45;;;;;;;8.53;7.07;;;;;;;7.53;96.47;103393.22;5050354;28;20420;-44
2022/01/23 11:38:15;;;;;;;9.07;8.13;;;;;;;7.54;96.49;103388.75;5052842;28;20859;-45
2022/01/23 11:54:57;;;;;;;8.00;6.63;;;;;;;7.19;97.03;103378.06;5027069;28;20478;-45
2022/01/23 11:57:43;;;;;;;8.50;7.00;;;;;;;7.29;96.77;103375.59;5052567;28;20443;-42
2022/01/23 12:00:18;;;;;;;7.30;6.70;;;;;;;7.41;96.94;103378.19;5051654;28;20458;-43
2022/01/23 12:03:08;;;;;;;6.77;6.27;;;;;;;7.38;96.79;103373.09;5050008;28;20470;-44
2022/01/23 12:05:38;;;;;;;6.60;6.30;;;;;;;7.47;96.75;103376.88;5051403;28;20968;-46
2022/01/23 12:08:36;;;;;;;8.43;6.50;;;;;;;7.62;97.08;103376.59;5051316;28;20451;-44
2022/01/23 12:17:43;;;;;;;10.57;7.70;;;;;;;7.78;96.29;103373.66;5037571;28;20443;-44
2022/01/23 12:20:12;;;;;;;7.27;6.67;;;;;;;7.76;96.91;103364.97;5050802;28;20860;-46
2022/01/23 12:22:56;;;;;;;8.87;7.13;;;;;;;7.84;96.79;103375.88;5050854;28;20542;-46
2022/01/23 12:25:30;;;;;;;8.20;7.27;;;;;;;7.72;96.07;103374.13;5051520;28;20419;-43
2022/01/23 12:28:17;;;;;;;8.10;6.90;;;;;;;7.72;96.53;103366.16;5051373;28;20793;-43
2022/01/23 12:30:46;;;;;;;7.70;7.00;;;;;;;7.70;96.78;103368.94;5049873;28;20428;-48
2022/01/23 12:33:44;;;;;;;8.23;7.23;;;;;;;7.76;96.78;103367.63;5051162;28;20491;-42
2022/01/23 12:36:24;;;;;;;8.30;7.53;;;;;;;7.71;97.02;103369.75;5051292;28;20428;-46
2022/01/23 12:38:54;;;;;;;14.07;8.57;;;;;;;7.71;96.69;103367.97;5051135;28;21324;-44
2022/01/23 12:41:32;;;;;;;8.70;7.97;;;;;;;7.67;97.06;103373.63;5050542;28;20442;-44
2022/01/23 12:44:03;;;;;;;11.30;8.57;;;;;;;7.70;96.72;103368.09;5050531;28;20488;-42
2022/01/23 12:46:37;;;;;;;9.23;8.33;;;;;;;7.74;96.84;103366.88;5050355;28;20419;-41
2022/01/23 12:49:22;;;;;;;9.03;8.13;;;;;;;7.59;96.85;103366.22;5050193;28;20470;-45
2022/01/23 12:51:52;;;;;;;11.83;8.40;;;;;;;7.61;97.18;103374.94;5043726;28;20454;-45
2022/01/23 12:54:31;;;;;;;9.63;8.73;;;;;;;7.65;96.92;103375.53;5050044;28;20478;-45
2022/01/23 12:57:12;;;;;;;10.93;8.87;;;;;;;7.64;96.77;103368.53;5050767;28;20428;-44
2022/01/23 12:59:42;;;;;;;8.97;8.07;;;;;;;7.63;97.04;103367.69;5049737;28;20459;-43
2022/01/23 13:02:14;;;;;;;12.37;9.00;;;;;;;7.62;97.17;103362.47;5049767;28;20470;-43
2022/01/23 13:04:46;;;;;;;12.50;8.83;;;;;;;7.68;96.71;103377.97;5049942;28;20511;-41
2022/01/23 13:07:23;;;;;;;12.33;7.33;;;;;;;7.67;96.83;103370.97;5049461;28;20431;-44
2022/01/23 13:09:55;;;;;;;8.30;7.60;;;;;;;7.67;97.05;103368.31;5049615;28;21151;-46
2022/01/23 13:18:18;;;;;;;7.90;7.20;;;;;;;7.60;96.60;103372.38;5049438;28;21087;-43
2022/01/23 13:26:40;;;;;;;10.10;7.90;;;;;;;7.54;97.10;103371.03;5049983;28;20435;-43
2022/01/23 13:32:17;;;;;;;15.13;8.37;;;;;;;7.47;97.11;103371.56;5046150;28;20546;-45
2022/01/23 13:34:49;;;;;;;10.73;7.47;;;;;;;7.44;96.82;103374.44;5049528;28;20479;-44
2022/01/23 13:37:20;;;;;;;9.47;8.13;;;;;;;7.49;96.85;103373.19;5055513;28;20424;-49
2022/01/23 13:39:53;;;;;;;9.93;8.20;;;;;;;7.43;96.55;103370.97;5048731;28;20463;-45
2022/01/23 13:42:49;;;;;;;12.73;7.50;;;;;;;7.38;96.55;103378.41;5048881;28;20454;-44
2022/01/23 13:48:34;;;;;;;15.80;7.43;;;;;;;7.24;96.83;103383.88;5049089;28;20474;-45
2022/01/23 13:51:29;;;;;;;13.70;8.53;;;;;;;7.19;96.61;103375.41;5049052;28;20816;-44
2022/01/23 13:57:37;;;;;;;8.43;7.03;;;;;;;7.22;96.19;103380.50;5048890;28;20663;-46
2022/01/23 14:00:00;;;;;;;11.67;8.20;;;;;;;7.16;96.76;103381.78;5048777;28;20467;-44
2022/01/23 14:02:30;;;;;;;18.93;7.37;;;;;;;7.15;96.32;103384.53;5048905;28;20477;-45
2022/01/23 14:05:07;;;;;;;12.70;6.60;;;;;;;7.14;95.98;103374.88;5049306;28;20436;-47
2022/01/23 14:07:36;;;;;;;8.03;7.43;;;;;;;7.14;96.03;103380.16;5049740;28;20435;-43
2022/01/23 14:10:14;;;;;;;10.90;7.23;;;;;;;7.15;95.83;103390.69;5049135;28;20477;-42
2022/01/23 14:12:42;;;;;;;10.17;7.60;;;;;;;7.18;96.28;103389.63;5048626;28;20448;-45
2022/01/23 14:15:20;;;;;;;10.40;8.00;;;;;;;7.10;96.20;103386.69;5048945;28;20514;-44
2022/01/23 14:18:00;;;;;;;13.17;7.90;;;;;;;7.10;95.81;103386.69;5048896;28;20786;-45
2022/01/23 14:20:29;;;;;;;15.67;9.20;;;;;;;7.09;95.51;103387.63;5049246;28;20432;-43
2022/01/23 14:22:57;;;;;;;10.23;7.50;;;;;;;7.03;95.97;103394.22;5049058;28;20447;-42
2022/01/23 14:25:28;;;;;;;9.00;8.07;;;;;;;6.98;95.91;103395.50;5049441;28;20432;-42
2022/01/23 14:28:04;;;;;;;9.10;6.97;;;;;;;6.95;95.82;103401.88;5049611;28;20427;-45